createdAt,value
2019-05-23T00:02:37.318Z,56.00
2019-05-23T00:05:15.920Z,56.10
2019-05-23T00:07:45.243Z,56.40
2019-05-23T00:10:20.747Z,56.50
2019-05-23T00:13:01.725Z,57.00
2019-05-23T00:15:35.573Z,56.50
2019-05-23T00:18:05.970Z,56.30
2019-05-23T00:20:35.604Z,56.50
2019-05-23T00:23:05.352Z,56.80
2019-05-23T00:25:44.727Z,56.40
2019-05-23T00:28:15.142Z,56.50
2019-05-23T00:30:55.822Z,56.60
2019-05-23T00:33:28.005Z,57.60
2019-05-23T00:35:59.258Z,56.90
2019-05-23T00:38:30.064Z,56.80
2019-05-23T00:40:59.694Z,56.50
2019-05-23T00:43:29.431Z,56.70
2019-05-23T00:45:59.942Z,56.90
2019-05-23T00:48:30.254Z,56.90
2019-05-23T00:51:06.725Z,56.90
2019-05-23T00:53:37.659Z,56.10
2019-05-23T00:56:09.022Z,56.80
2019-05-23T00:58:38.477Z,57.20
2019-05-23T01:01:09.122Z,57.20
2019-05-23T01:03:41.227Z,57.20
2019-05-23T01:06:10.421Z,57.20
2019-05-23T01:08:40.337Z,57.70
2019-05-23T01:11:09.299Z,57.90
2019-05-23T01:13:39.842Z,58.50
2019-05-23T01:16:08.732Z,58.40
2019-05-23T01:18:39.203Z,58.20
2019-05-23T01:21:29.948Z,58.10
2019-05-23T01:24:05.142Z,58.10
2019-05-23T01:26:34.314Z,58.00
2019-05-23T01:29:06.143Z,58.00
2019-05-23T01:31:38.143Z,57.70
2019-05-23T01:34:09.180Z,58.00
2019-05-23T01:36:38.100Z,58.20
2019-05-23T01:39:09.985Z,58.10
2019-05-23T01:41:39.538Z,58.20
2019-05-23T01:44:10.296Z,58.10
2019-05-23T01:46:39.890Z,58.10
2019-05-23T01:49:09.040Z,58.10
2019-05-23T01:51:38.175Z,58.40
2019-05-23T01:54:07.514Z,58.50
2019-05-23T01:56:37.314Z,58.70
2019-05-23T01:59:06.207Z,58.80
2019-05-23T02:01:35.409Z,58.80
2019-05-23T02:04:04.332Z,58.90
2019-05-23T02:06:33.331Z,58.90
2019-05-23T02:09:02.844Z,58.90
2019-05-23T02:11:31.749Z,59.10
2019-05-23T02:14:00.840Z,59.00
2019-05-23T02:16:31.702Z,59.00
2019-05-23T02:19:00.670Z,58.80
2019-05-23T02:21:30.981Z,59.10
2019-05-23T02:24:00.457Z,59.10
2019-05-23T02:26:31.030Z,59.60
2019-05-23T02:29:00.686Z,59.00
2019-05-23T02:31:29.907Z,60.20
2019-05-23T02:34:05.185Z,59.90
2019-05-23T02:36:34.550Z,59.20
2019-05-23T02:39:34.951Z,59.80
2019-05-23T02:42:19.962Z,59.60
2019-05-23T02:44:50.496Z,59.50
2019-05-23T02:47:29.526Z,59.40
2019-05-23T02:50:00.006Z,59.40
2019-05-23T02:52:38.916Z,60.00
2019-05-23T02:55:12.910Z,59.50
2019-05-23T02:57:42.970Z,59.60
2019-05-23T03:00:54.103Z,59.50
2019-05-23T03:03:24.373Z,59.60
2019-05-23T03:05:55.341Z,59.50
2019-05-23T03:08:26.983Z,59.50
2019-05-23T03:11:04.056Z,59.50
2019-05-23T03:13:35.709Z,59.40
2019-05-23T03:16:05.828Z,59.30
2019-05-23T03:18:40.010Z,59.50
2019-05-23T03:21:08.961Z,59.70
2019-05-23T03:23:38.554Z,59.60
2019-05-23T03:26:56.980Z,59.70
2019-05-23T03:29:23.570Z,59.70
2019-05-23T03:31:59.124Z,59.70
2019-05-23T03:34:31.640Z,59.80
2019-05-23T03:37:00.877Z,59.40
2019-05-23T03:39:43.517Z,59.60
2019-05-23T03:42:12.655Z,59.50
2019-05-23T03:44:43.341Z,60.00
2019-05-23T03:47:16.436Z,60.40
2019-05-23T03:49:45.432Z,60.60
2019-05-23T03:52:16.365Z,61.00
2019-05-23T03:54:49.047Z,61.40
2019-05-23T03:57:19.367Z,61.60
2019-05-23T03:59:50.449Z,61.50
2019-05-23T04:02:32.621Z,61.30
2019-05-23T04:05:02.654Z,60.40
2019-05-23T04:07:32.531Z,61.30
2019-05-23T04:10:01.668Z,61.20
2019-05-23T04:12:31.428Z,61.50
2019-05-23T04:15:00.719Z,61.50
2019-05-23T04:17:29.902Z,61.60
2019-05-23T04:19:59.451Z,61.70
2019-05-23T04:22:29.318Z,61.70
2019-05-23T04:25:01.869Z,61.80
2019-05-23T04:27:29.555Z,61.80
2019-05-23T04:29:58.578Z,62.00
2019-05-23T04:32:27.357Z,62.10
2019-05-23T04:34:56.221Z,62.10
2019-05-23T04:37:25.142Z,62.20
2019-05-23T04:39:54.173Z,62.40
2019-05-23T04:42:27.392Z,62.70
2019-05-23T04:44:56.122Z,62.10
2019-05-23T04:47:25.910Z,62.80
2019-05-23T04:49:54.738Z,63.20
2019-05-23T04:52:34.180Z,63.40
2019-05-23T04:55:03.494Z,62.80
2019-05-23T04:57:32.448Z,63.60
2019-05-23T05:00:01.671Z,63.40
2019-05-23T05:02:30.628Z,63.40
2019-05-23T05:04:59.563Z,63.80
2019-05-23T05:07:28.481Z,63.90
2019-05-23T05:09:57.496Z,64.10
2019-05-23T05:12:26.363Z,64.40
2019-05-23T05:14:55.365Z,64.50
2019-05-23T05:17:24.586Z,64.50
2019-05-23T05:19:53.388Z,64.70
2019-05-23T05:22:22.907Z,64.90
2019-05-23T05:24:51.760Z,65.00
2019-05-23T05:27:21.624Z,65.20
2019-05-23T05:29:50.506Z,65.50
2019-05-23T05:32:20.511Z,65.20
2019-05-23T05:34:49.522Z,65.30
2019-05-23T05:37:18.393Z,65.20
2019-05-23T05:39:48.035Z,65.20
2019-05-23T05:42:17.082Z,65.30
2019-05-23T05:44:46.348Z,64.90
2019-05-23T05:47:15.838Z,65.10
2019-05-23T05:49:44.595Z,65.20
2019-05-23T05:52:13.576Z,65.30
2019-05-23T05:54:42.681Z,65.40
2019-05-23T05:57:11.761Z,65.40
2019-05-23T05:59:40.919Z,65.50
2019-05-23T06:02:12.580Z,65.30
2019-05-23T06:04:41.411Z,65.60
2019-05-23T06:07:36.697Z,65.50
2019-05-23T06:10:11.129Z,65.80
2019-05-23T06:12:40.428Z,65.90
2019-05-23T06:15:10.560Z,66.10
2019-05-23T06:17:39.697Z,65.80
2019-05-23T06:20:12.645Z,65.60
2019-05-23T06:22:41.978Z,65.70
2019-05-23T06:25:12.924Z,65.50
2019-05-23T06:27:42.364Z,65.20
2019-05-23T06:30:13.583Z,65.20
2019-05-23T06:32:42.548Z,64.90
2019-05-23T06:35:13.126Z,64.00
2019-05-23T06:37:42.582Z,63.50
2019-05-23T06:40:33.903Z,63.40
2019-05-23T06:43:02.959Z,62.60
2019-05-23T06:45:32.147Z,61.50
2019-05-23T06:48:01.532Z,61.70
2019-05-23T06:50:30.915Z,61.20
2019-05-23T06:52:59.710Z,61.10
2019-05-23T06:55:28.671Z,61.00
2019-05-23T06:57:57.707Z,60.90
2019-05-23T07:00:28.150Z,60.80
2019-05-23T07:02:59.876Z,60.50
2019-05-23T07:05:32.905Z,60.30
2019-05-23T07:08:02.388Z,60.10
2019-05-23T07:10:31.280Z,60.20
2019-05-23T07:13:00.269Z,59.50
2019-05-23T07:15:29.799Z,59.20
2019-05-23T07:18:00.654Z,58.90
2019-05-23T07:20:29.619Z,58.10
2019-05-23T07:22:58.862Z,58.40
2019-05-23T07:25:28.335Z,57.90
2019-05-23T07:27:57.160Z,57.40
2019-05-23T07:30:27.048Z,57.90
2019-05-23T07:32:56.987Z,57.60
2019-05-23T07:35:26.570Z,57.00
2019-05-23T07:37:55.505Z,56.50
2019-05-23T07:40:26.191Z,56.40
2019-05-23T07:42:55.931Z,55.80
2019-05-23T07:45:30.252Z,55.70
2019-05-23T07:47:59.362Z,55.60
2019-05-23T07:50:28.294Z,55.00
2019-05-23T07:52:58.913Z,54.50
2019-05-23T07:55:37.160Z,54.40
2019-05-23T07:58:06.403Z,54.40
2019-05-23T08:00:38.332Z,54.80
2019-05-23T08:03:09.493Z,54.50
2019-05-23T08:05:38.690Z,54.30
2019-05-23T08:08:07.771Z,53.40
2019-05-23T08:10:36.758Z,51.80
2019-05-23T08:13:05.594Z,52.80
2019-05-23T08:15:35.961Z,53.00
2019-05-23T08:18:05.755Z,53.20
2019-05-23T08:20:34.909Z,52.40
2019-05-23T08:23:03.672Z,52.10
2019-05-23T08:25:32.756Z,52.00
2019-05-23T08:28:01.904Z,52.10
2019-05-23T08:30:32.279Z,51.70
2019-05-23T08:33:01.166Z,52.00
2019-05-23T08:35:30.489Z,51.20
2019-05-23T08:38:00.263Z,50.80
2019-05-23T08:40:30.718Z,50.70
2019-05-23T08:42:59.776Z,50.50
2019-05-23T08:45:29.129Z,50.30
2019-05-23T08:47:58.365Z,50.00
2019-05-23T08:50:27.257Z,49.00
2019-05-23T08:52:56.462Z,48.90
2019-05-23T08:55:26.431Z,49.00
2019-05-23T08:57:55.345Z,48.80
2019-05-23T09:00:26.903Z,48.60
2019-05-23T09:02:58.752Z,48.70
2019-05-23T09:05:30.377Z,48.20
2019-05-23T09:07:59.974Z,47.70
2019-05-23T09:10:29.629Z,47.90
2019-05-23T09:12:58.758Z,46.90
2019-05-23T09:15:27.767Z,46.60
2019-05-23T09:17:56.855Z,46.20
2019-05-23T09:20:26.068Z,46.60
2019-05-23T09:22:54.957Z,46.30
2019-05-23T09:25:23.707Z,43.80
2019-05-23T09:27:53.325Z,45.00
2019-05-23T09:30:23.820Z,45.30
2019-05-23T09:32:53.272Z,45.40
2019-05-23T09:35:22.641Z,45.60
2019-05-23T09:37:51.721Z,45.40
2019-05-23T09:40:21.141Z,46.10
2019-05-23T09:42:50.116Z,45.00
2019-05-23T09:45:19.429Z,45.10
2019-05-23T09:47:50.925Z,44.80
2019-05-23T09:50:20.808Z,44.40
2019-05-23T09:52:49.648Z,44.20
2019-05-23T09:55:18.751Z,43.80
2019-05-23T09:57:47.682Z,44.50
2019-05-23T10:00:20.063Z,44.10
2019-05-23T10:02:48.897Z,43.60
2019-05-23T10:05:17.782Z,43.00
2019-05-23T10:07:46.629Z,43.00
2019-05-23T10:10:17.674Z,42.70
2019-05-23T10:12:46.603Z,42.50
2019-05-23T10:15:42.434Z,42.30
2019-05-23T10:18:14.960Z,42.40
2019-05-23T10:20:45.147Z,42.70
2019-05-23T10:23:14.118Z,42.70
2019-05-23T10:25:43.042Z,42.90
2019-05-23T10:28:11.902Z,43.70
2019-05-23T10:30:40.953Z,42.40
2019-05-23T10:33:12.757Z,41.80
2019-05-23T10:35:58.552Z,41.30
2019-05-23T10:38:11.583Z,42.60
2019-05-23T10:40:40.536Z,42.30
2019-05-23T10:43:10.305Z,41.90
2019-05-23T10:45:39.203Z,42.80
2019-05-23T10:48:10.593Z,42.20
2019-05-23T10:50:58.595Z,41.90
2019-05-23T10:53:27.473Z,39.20
2019-05-23T10:55:56.270Z,41.80
2019-05-23T10:58:26.838Z,41.90
2019-05-23T11:00:56.734Z,42.00
2019-05-23T11:03:26.728Z,42.10
2019-05-23T11:05:55.590Z,42.10
2019-05-23T11:08:28.881Z,41.90
2019-05-23T11:10:56.216Z,42.20
2019-05-23T11:13:25.118Z,42.50
2019-05-23T11:15:53.971Z,42.10
2019-05-23T11:18:23.159Z,41.50
2019-05-23T11:20:52.094Z,41.90
2019-05-23T11:23:25.681Z,41.80
2019-05-23T11:25:54.597Z,42.00
2019-05-23T11:28:23.854Z,41.90
2019-05-23T11:30:55.157Z,41.00
2019-05-23T11:33:25.152Z,41.70
2019-05-23T11:35:53.980Z,41.80
2019-05-23T11:38:23.368Z,41.70
2019-05-23T11:40:52.256Z,41.30
2019-05-23T11:43:21.104Z,41.30
2019-05-23T11:46:09.152Z,41.20
2019-05-23T11:48:38.622Z,41.00
2019-05-23T11:51:07.433Z,41.00
2019-05-23T11:53:36.225Z,40.60
2019-05-23T11:56:05.105Z,40.50
2019-05-23T11:58:34.199Z,40.30
2019-05-23T12:01:21.305Z,39.20
2019-05-23T12:03:54.963Z,38.70
2019-05-23T12:06:26.566Z,38.20
2019-05-23T12:08:55.669Z,37.50
2019-05-23T12:11:24.607Z,37.10
2019-05-23T12:13:53.438Z,36.60
2019-05-23T12:16:23.477Z,37.10
2019-05-23T12:18:52.366Z,36.60
2019-05-23T12:21:21.162Z,36.70
2019-05-23T12:23:50.018Z,36.10
2019-05-23T12:26:18.940Z,35.90
2019-05-23T12:28:47.778Z,34.20
2019-05-23T12:31:17.938Z,34.70
2019-05-23T12:33:46.785Z,33.40
2019-05-23T12:36:16.241Z,34.00
2019-05-23T12:38:45.077Z,33.60
2019-05-23T12:41:14.402Z,33.90
2019-05-23T12:43:43.326Z,33.40
2019-05-23T12:46:12.343Z,34.20
2019-05-23T12:49:03.472Z,34.30
2019-05-23T12:51:34.962Z,33.80
2019-05-23T12:54:04.006Z,33.00
2019-05-23T12:56:33.920Z,33.80
2019-05-23T12:59:05.674Z,33.40
2019-05-23T13:01:36.560Z,33.60
2019-05-23T13:04:09.964Z,33.50
2019-05-23T13:06:36.525Z,33.10
2019-05-23T13:09:08.653Z,32.80
2019-05-23T13:11:37.943Z,33.10
2019-05-23T13:14:07.626Z,34.00
2019-05-23T13:16:36.482Z,34.00
2019-05-23T13:19:05.427Z,33.80
2019-05-23T13:21:34.339Z,34.50
2019-05-23T13:24:03.245Z,33.90
2019-05-23T13:26:32.022Z,33.20
2019-05-23T13:29:00.869Z,33.60
2019-05-23T13:31:29.996Z,33.90
2019-05-23T13:33:58.821Z,33.50
2019-05-23T13:36:27.730Z,33.50
2019-05-23T13:38:56.655Z,33.30
2019-05-23T13:41:25.396Z,33.30
2019-05-23T13:43:54.316Z,33.60
2019-05-23T13:46:23.268Z,33.40
2019-05-23T13:48:52.138Z,33.60
2019-05-23T13:51:20.943Z,32.90
2019-05-23T13:53:49.856Z,32.90
2019-05-23T13:56:19.144Z,33.30
2019-05-23T13:58:48.208Z,32.00
2019-05-23T14:01:18.199Z,31.50
2019-05-23T14:03:47.060Z,30.80
2019-05-23T14:06:15.900Z,30.00
2019-05-23T14:08:44.770Z,27.80
2019-05-23T14:11:13.906Z,28.20
2019-05-23T14:13:43.139Z,29.30
2019-05-23T14:16:12.174Z,29.30
2019-05-23T14:18:41.286Z,29.20
2019-05-23T14:21:10.390Z,29.10
2019-05-23T14:23:39.291Z,29.30
2019-05-23T14:26:09.107Z,30.00
2019-05-23T14:28:38.191Z,29.70
2019-05-23T14:31:14.711Z,30.00
2019-05-23T14:33:59.335Z,30.10
2019-05-23T14:36:37.832Z,30.00
2019-05-23T14:39:09.989Z,30.00
2019-05-23T14:41:45.859Z,29.70
2019-05-23T14:44:15.233Z,29.70
2019-05-23T14:46:55.270Z,29.70
2019-05-23T14:49:30.089Z,29.60
2019-05-23T14:52:17.782Z,29.20
2019-05-23T14:54:49.564Z,26.70
2019-05-23T14:57:18.633Z,27.80
2019-05-23T14:59:47.444Z,27.80
2019-05-23T15:02:19.326Z,28.00
2019-05-23T15:04:48.231Z,27.70
2019-05-23T15:07:17.142Z,27.00
2019-05-23T15:09:47.692Z,27.60
2019-05-23T15:12:19.442Z,26.60
2019-05-23T15:14:48.441Z,26.50
2019-05-23T15:17:19.729Z,26.00
2019-05-23T15:19:48.665Z,26.00
2019-05-23T15:22:17.484Z,26.00
2019-05-23T15:24:46.327Z,25.60
2019-05-23T15:27:15.637Z,25.20
2019-05-23T15:29:44.505Z,25.40
2019-05-23T15:32:13.356Z,25.30
2019-05-23T15:34:42.345Z,25.60
2019-05-23T15:37:11.567Z,25.70
2019-05-23T15:39:40.483Z,25.10
2019-05-23T15:42:09.659Z,24.90
2019-05-23T15:44:38.476Z,25.10
2019-05-23T15:47:07.375Z,25.00
2019-05-23T15:49:37.902Z,25.00
2019-05-23T15:52:16.994Z,24.50
2019-05-23T15:54:50.893Z,24.70
2019-05-23T15:57:23.498Z,24.60
2019-05-23T15:59:59.787Z,24.40
2019-05-23T16:02:33.207Z,24.40
2019-05-23T16:05:04.151Z,24.20
2019-05-23T16:07:33.186Z,23.90
2019-05-23T16:10:03.410Z,23.90
2019-05-23T16:12:33.111Z,22.60
2019-05-23T16:15:01.987Z,23.60
2019-05-23T16:17:30.893Z,23.60
2019-05-23T16:19:59.642Z,23.40
2019-05-23T16:22:28.810Z,23.20
2019-05-23T16:24:57.638Z,24.10
2019-05-23T16:27:26.597Z,23.60
2019-05-23T16:29:55.442Z,24.10
2019-05-23T16:32:24.476Z,23.80
2019-05-23T16:34:53.252Z,23.80
2019-05-23T16:37:22.114Z,24.20
2019-05-23T16:39:50.911Z,24.00
2019-05-23T16:42:20.039Z,24.00
2019-05-23T16:44:48.906Z,24.10
2019-05-23T16:47:17.801Z,23.30
2019-05-23T16:49:46.947Z,23.90
2019-05-23T16:52:16.202Z,24.10
2019-05-23T16:54:47.113Z,24.30
2019-05-23T16:57:31.507Z,24.30
2019-05-23T17:00:11.079Z,24.50
2019-05-23T17:02:53.564Z,24.60
2019-05-23T17:05:40.602Z,24.90
2019-05-23T17:08:20.921Z,25.00
2019-05-23T17:10:55.071Z,25.40
2019-05-23T17:13:29.249Z,25.70
2019-05-23T17:16:07.088Z,26.20
2019-05-23T17:18:50.447Z,26.60
2019-05-23T17:21:31.640Z,26.80
2019-05-23T17:24:19.699Z,27.10
2019-05-23T17:26:53.906Z,27.60
2019-05-23T17:29:39.959Z,28.00
2019-05-23T17:32:10.768Z,28.20
2019-05-23T17:34:39.647Z,28.40
2019-05-23T17:37:10.372Z,28.50
2019-05-23T17:39:39.966Z,28.60
2019-05-23T17:42:08.795Z,29.00
2019-05-23T17:44:37.664Z,29.30
2019-05-23T17:47:06.762Z,29.40
2019-05-23T17:49:35.905Z,29.60
2019-05-23T17:52:05.093Z,29.80
2019-05-23T17:54:33.951Z,30.60
2019-05-23T17:57:02.794Z,30.30
2019-05-23T17:59:31.753Z,31.10
2019-05-23T18:02:01.561Z,31.10
2019-05-23T18:04:30.360Z,32.90
2019-05-23T18:06:59.637Z,32.60
2019-05-23T18:09:30.060Z,32.50
2019-05-23T18:11:59.835Z,32.60
2019-05-23T18:14:29.232Z,32.50
2019-05-23T18:16:58.115Z,32.50
2019-05-23T18:19:27.141Z,32.60
2019-05-23T18:21:56.155Z,33.30
2019-05-23T18:24:25.633Z,32.60
2019-05-23T18:26:54.516Z,32.60
2019-05-23T18:29:23.656Z,32.80
2019-05-23T18:31:53.278Z,32.90
2019-05-23T18:34:23.781Z,33.00
2019-05-23T18:36:52.850Z,33.10
2019-05-23T18:39:22.947Z,33.50
2019-05-23T18:41:52.403Z,33.40
2019-05-23T18:44:21.934Z,33.50
2019-05-23T18:46:52.791Z,33.40
2019-05-23T18:49:22.358Z,33.40
2019-05-23T18:51:51.141Z,33.70
2019-05-23T18:54:20.197Z,33.70
2019-05-23T18:56:49.515Z,33.30
2019-05-23T18:59:19.418Z,33.60
2019-05-23T19:01:48.370Z,33.70
2019-05-23T19:04:17.194Z,33.70
2019-05-23T19:06:46.881Z,34.00
2019-05-23T19:09:19.440Z,34.00
2019-05-23T19:11:48.338Z,34.10
2019-05-23T19:14:17.729Z,34.60
2019-05-23T19:16:47.246Z,34.10
2019-05-23T19:19:16.098Z,34.60
2019-05-23T19:21:45.279Z,34.90
2019-05-23T19:24:14.624Z,34.80
2019-05-23T19:26:43.701Z,35.70
2019-05-23T19:29:12.709Z,35.00
2019-05-23T19:31:41.655Z,35.40
2019-05-23T19:34:12.638Z,35.40
2019-05-23T19:36:41.412Z,35.50
2019-05-23T19:39:13.737Z,35.80
2019-05-23T19:41:42.603Z,35.80
2019-05-23T19:44:11.711Z,36.10
2019-05-23T19:46:40.904Z,36.00
2019-05-23T19:49:10.765Z,36.10
2019-05-23T19:51:39.917Z,36.20
2019-05-23T19:54:09.122Z,37.20
2019-05-23T19:56:38.603Z,37.20
2019-05-23T19:59:07.525Z,37.40
2019-05-23T20:01:52.311Z,37.50
2019-05-23T20:04:26.187Z,37.60
2019-05-23T20:06:52.632Z,37.70
2019-05-23T20:09:23.041Z,37.80
2019-05-23T20:11:54.809Z,38.10
2019-05-23T20:14:22.971Z,38.30
2019-05-23T20:16:52.259Z,38.60
2019-05-23T20:19:21.167Z,38.90
2019-05-23T20:21:50.046Z,39.10
2019-05-23T20:24:19.005Z,39.40
2019-05-23T20:26:47.884Z,39.70
2019-05-23T20:29:16.733Z,40.00
2019-05-23T20:31:48.611Z,40.90
2019-05-23T20:34:17.536Z,42.10
2019-05-23T20:36:46.329Z,41.60
2019-05-23T20:39:15.421Z,41.50
2019-05-23T20:41:44.312Z,41.40
2019-05-23T20:44:13.128Z,41.50
2019-05-23T20:46:42.329Z,41.70
2019-05-23T20:49:11.139Z,41.70
2019-05-23T20:51:40.692Z,42.00
2019-05-23T20:54:09.557Z,41.80
2019-05-23T20:56:38.435Z,42.00
2019-05-23T20:59:08.273Z,42.20
2019-05-23T21:01:40.458Z,42.20
2019-05-23T21:04:09.279Z,42.30
2019-05-23T21:06:38.150Z,42.40
2019-05-23T21:09:08.499Z,42.50
2019-05-23T21:11:37.446Z,42.70
2019-05-23T21:14:06.268Z,42.80
2019-05-23T21:16:35.002Z,42.90
2019-05-23T21:19:03.977Z,43.20
2019-05-23T21:21:32.812Z,43.40
2019-05-23T21:24:01.591Z,43.80
2019-05-23T21:26:30.545Z,43.60
2019-05-23T21:28:59.453Z,43.70
2019-05-23T21:31:28.354Z,44.00
2019-05-23T21:33:57.201Z,44.20
2019-05-23T21:36:26.111Z,44.30
2019-05-23T21:38:55.056Z,44.40
2019-05-23T21:41:23.825Z,44.50
2019-05-23T21:43:54.626Z,44.70
2019-05-23T21:46:23.521Z,45.00
2019-05-23T21:48:52.375Z,45.60
2019-05-23T21:51:21.208Z,45.90
2019-05-23T21:53:49.963Z,46.10
2019-05-23T21:56:18.775Z,46.40
2019-05-23T21:58:47.611Z,46.20
2019-05-23T22:01:41.808Z,46.10
2019-05-23T22:04:17.694Z,46.20
2019-05-23T22:07:03.202Z,47.10
2019-05-23T22:09:32.029Z,46.50
2019-05-23T22:12:01.621Z,46.60
2019-05-23T22:14:30.462Z,46.80
2019-05-23T22:16:59.574Z,46.70
2019-05-23T22:19:28.902Z,46.90
2019-05-23T22:21:58.004Z,47.00
2019-05-23T22:24:26.989Z,47.00
2019-05-23T22:26:55.813Z,47.10
2019-05-23T22:29:24.679Z,47.40
2019-05-23T22:31:56.387Z,48.00
2019-05-23T22:34:42.112Z,47.40
2019-05-23T22:37:21.888Z,47.60
2019-05-23T22:39:50.711Z,47.70
2019-05-23T22:42:21.045Z,47.80
2019-05-23T22:44:50.150Z,48.60
2019-05-23T22:47:18.977Z,48.20
2019-05-23T22:49:47.844Z,48.30
2019-05-23T22:52:16.775Z,48.30
2019-05-23T22:54:45.635Z,48.40
2019-05-23T22:57:16.192Z,48.50
2019-05-23T22:59:45.181Z,48.70
2019-05-23T23:02:15.860Z,48.70
2019-05-23T23:04:44.683Z,49.00
2019-05-23T23:07:13.533Z,49.10
2019-05-23T23:09:42.337Z,49.30
2019-05-23T23:12:11.266Z,49.60
2019-05-23T23:14:40.106Z,49.90
2019-05-23T23:17:08.948Z,50.10
2019-05-23T23:19:37.725Z,50.10
2019-05-23T23:22:07.969Z,50.10
2019-05-23T23:24:36.744Z,51.10
2019-05-23T23:27:05.599Z,50.80
2019-05-23T23:29:34.489Z,50.80
2019-05-23T23:32:04.073Z,50.80
2019-05-23T23:34:33.304Z,50.70
2019-05-23T23:37:02.055Z,50.80
2019-05-23T23:39:30.897Z,50.70
2019-05-23T23:41:59.704Z,50.60
2019-05-23T23:44:33.682Z,51.00
2019-05-23T23:47:22.269Z,51.00
2019-05-23T23:50:09.297Z,51.00
2019-05-23T23:52:56.125Z,50.80
2019-05-23T23:55:42.757Z,50.80
2019-05-23T23:58:10.849Z,50.80
